sensor_id;sensor_type;location;lat;lon;timestamp;pressure;altitude;pressure_sealevel;temperature
15544;BMP180;7873;52.230;12.856;2023-05-01T00:01:42;101354.97;;;23.07
15544;BMP180;7873;52.230;12.856;2023-05-01T00:04:09;101354.66;;;23.10
15544;BMP180;7873;52.230;12.856;2023-05-01T00:06:37;101359.41;;;23.16
15544;BMP180;7873;52.230;12.856;2023-05-01T00:09:03;101357.75;;;23.15
15544;BMP180;7873;52.230;12.856;2023-05-01T00:11:31;101353.19;;;23.15
15544;BMP180;7873;52.230;12.856;2023-05-01T00:13:58;101354.53;;;23.19
15544;BMP180;7873;52.230;12.856;2023-05-01T00:16:24;101352.38;;;23.23
15544;BMP180;7873;52.230;12.856;2023-05-01T00:18:51;101350.22;;;23.26
15544;BMP180;7873;52.230;12.856;2023-05-01T00:21:18;101348.22;;;23.28
15544;BMP180;7873;52.230;12.856;2023-05-01T00:23:46;101345.53;;;23.28
15544;BMP180;7873;52.230;12.856;2023-05-01T00:26:12;101347.88;;;23.31
15544;BMP180;7873;52.230;12.856;2023-05-01T00:28:39;101356.47;;;23.35
15544;BMP180;7873;52.230;12.856;2023-05-01T00:31:06;101342.50;;;23.39
15544;BMP180;7873;52.230;12.856;2023-05-01T00:33:32;101353.09;;;23.41
15544;BMP180;7873;52.230;12.856;2023-05-01T00:35:59;101343.50;;;23.38
15544;BMP180;7873;52.230;12.856;2023-05-01T00:38:26;101346.53;;;23.43
15544;BMP180;7873;52.230;12.856;2023-05-01T00:40:54;101341.34;;;23.42
15544;BMP180;7873;52.230;12.856;2023-05-01T00:43:21;101337.31;;;23.46
15544;BMP180;7873;52.230;12.856;2023-05-01T00:45:47;101333.81;;;23.45
15544;BMP180;7873;52.230;12.856;2023-05-01T00:48:14;101333.81;;;23.45
15544;BMP180;7873;52.230;12.856;2023-05-01T00:50:43;101335.16;;;23.49
15544;BMP180;7873;52.230;12.856;2023-05-01T00:53:11;101335.63;;;23.53
15544;BMP180;7873;52.230;12.856;2023-05-01T00:55:40;101329.25;;;23.54
15544;BMP180;7873;52.230;12.856;2023-05-01T00:58:09;101329.97;;;23.56
15544;BMP180;7873;52.230;12.856;2023-05-01T01:00:36;101319.88;;;23.58
15544;BMP180;7873;52.230;12.856;2023-05-01T01:03:03;101325.06;;;23.59
15544;BMP180;7873;52.230;12.856;2023-05-01T01:05:31;101320.22;;;23.63
15544;BMP180;7873;52.230;12.856;2023-05-01T01:08:04;101320.88;;;23.65
15544;BMP180;7873;52.230;12.856;2023-05-01T01:10:42;101321.56;;;23.67
15544;BMP180;7873;52.230;12.856;2023-05-01T01:13:15;101320.22;;;23.71
15544;BMP180;7873;52.230;12.856;2023-05-01T01:15:49;101315.00;;;23.69
15544;BMP180;7873;52.230;12.856;2023-05-01T01:18:23;101312.00;;;23.72
15544;BMP180;7873;52.230;12.856;2023-05-01T01:20:54;101313.66;;;23.73
15544;BMP180;7873;52.230;12.856;2023-05-01T01:23:39;101316.69;;;23.78
15544;BMP180;7873;52.230;12.856;2023-05-01T01:26:26;101314.00;;;23.78
15544;BMP180;7873;52.230;12.856;2023-05-01T01:32:13;101309.28;;;23.80
15544;BMP180;7873;52.230;12.856;2023-05-01T01:34:46;101306.97;;;23.85
15544;BMP180;7873;52.230;12.856;2023-05-01T01:37:19;101306.28;;;23.83
15544;BMP180;7873;52.230;12.856;2023-05-01T01:39:51;101298.22;;;23.83
15544;BMP180;7873;52.230;12.856;2023-05-01T01:42:22;101303.44;;;23.84
15544;BMP180;7873;52.230;12.856;2023-05-01T01:44:54;101296.72;;;23.88
15544;BMP180;7873;52.230;12.856;2023-05-01T01:47:24;101299.22;;;23.90
15544;BMP180;7873;52.230;12.856;2023-05-01T01:49:55;101294.69;;;23.90
15544;BMP180;7873;52.230;12.856;2023-05-01T01:52:23;101298.72;;;23.94
15544;BMP180;7873;52.230;12.856;2023-05-01T01:54:53;101291.16;;;23.98
15544;BMP180;7873;52.230;12.856;2023-05-01T01:57:23;101285.59;;;23.99
15544;BMP180;7873;52.230;12.856;2023-05-01T01:59:52;101279.19;;;24.00
15544;BMP180;7873;52.230;12.856;2023-05-01T02:02:20;101280.56;;;24.04
15544;BMP180;7873;52.230;12.856;2023-05-01T02:04:48;101276.69;;;24.07
15544;BMP180;7873;52.230;12.856;2023-05-01T02:07:18;101275.66;;;24.08
15544;BMP180;7873;52.230;12.856;2023-05-01T02:09:45;101273.31;;;24.05
15544;BMP180;7873;52.230;12.856;2023-05-01T02:12:13;101262.41;;;24.06
15544;BMP180;7873;52.230;12.856;2023-05-01T02:14:43;101262.22;;;24.08
15544;BMP180;7873;52.230;12.856;2023-05-01T02:17:10;101264.75;;;24.09
15544;BMP180;7873;52.230;12.856;2023-05-01T02:19:39;101254.81;;;24.10
15544;BMP180;7873;52.230;12.856;2023-05-01T02:22:07;101246.72;;;24.10
15544;BMP180;7873;52.230;12.856;2023-05-01T02:24:37;101243.69;;;24.13
15544;BMP180;7873;52.230;12.856;2023-05-01T02:27:12;101245.41;;;24.14
15544;BMP180;7873;52.230;12.856;2023-05-01T02:29:40;101241.84;;;24.13
15544;BMP180;7873;52.230;12.856;2023-05-01T02:32:07;101238.16;;;24.14
15544;BMP180;7873;52.230;12.856;2023-05-01T02:34:34;101234.44;;;24.15
15544;BMP180;7873;52.230;12.856;2023-05-01T02:37:01;101226.22;;;24.17
15544;BMP180;7873;52.230;12.856;2023-05-01T02:39:28;101225.88;;;24.20
15544;BMP180;7873;52.230;12.856;2023-05-01T02:41:57;101225.88;;;24.20
15544;BMP180;7873;52.230;12.856;2023-05-01T02:44:28;101231.06;;;24.21
15544;BMP180;7873;52.230;12.856;2023-05-01T02:46:57;101224.66;;;24.22
15544;BMP180;7873;52.230;12.856;2023-05-01T02:49:26;101224.00;;;24.28
15544;BMP180;7873;52.230;12.856;2023-05-01T02:51:53;101224.16;;;24.27
15544;BMP180;7873;52.230;12.856;2023-05-01T02:54:19;101214.91;;;24.29
15544;BMP180;7873;52.230;12.856;2023-05-01T02:56:46;101213.53;;;24.33
15544;BMP180;7873;52.230;12.856;2023-05-01T02:59:14;101209.16;;;24.32
15544;BMP180;7873;52.230;12.856;2023-05-01T03:01:41;101207.13;;;24.34
15544;BMP180;7873;52.230;12.856;2023-05-01T03:04:08;101209.47;;;24.37
15544;BMP180;7873;52.230;12.856;2023-05-01T03:06:35;101208.09;;;24.41
15544;BMP180;7873;52.230;12.856;2023-05-01T03:09:02;101202.72;;;24.41
15544;BMP180;7873;52.230;12.856;2023-05-01T03:11:28;101195.50;;;24.42
15544;BMP180;7873;52.230;12.856;2023-05-01T03:13:55;101197.19;;;24.43
15544;BMP180;7873;52.230;12.856;2023-05-01T03:16:23;101201.03;;;24.48
15544;BMP180;7873;52.230;12.856;2023-05-01T03:18:50;101196.16;;;24.52
15544;BMP180;7873;52.230;12.856;2023-05-01T03:21:16;101202.38;;;24.52
15544;BMP180;7873;52.230;12.856;2023-05-01T03:23:43;101200.84;;;24.50
15544;BMP180;7873;52.230;12.856;2023-05-01T03:26:09;101200.53;;;24.53
15544;BMP180;7873;52.230;12.856;2023-05-01T03:28:36;101193.97;;;24.55
15544;BMP180;7873;52.230;12.856;2023-05-01T03:31:03;101189.59;;;24.54
15544;BMP180;7873;52.230;12.856;2023-05-01T03:33:31;101186.03;;;24.54
15544;BMP180;7873;52.230;12.856;2023-05-01T03:35:59;101186.91;;;24.54
15544;BMP180;7873;52.230;12.856;2023-05-01T03:38:26;101190.25;;;24.56
15544;BMP180;7873;52.230;12.856;2023-05-01T03:40:53;101182.84;;;24.58
15544;BMP180;7873;52.230;12.856;2023-05-01T03:43:19;101186.19;;;24.60
15544;BMP180;7873;52.230;12.856;2023-05-01T03:45:46;101185.38;;;24.60
15544;BMP180;7873;52.230;12.856;2023-05-01T03:48:13;101182.47;;;24.61
15544;BMP180;7873;52.230;12.856;2023-05-01T03:50:41;101177.94;;;24.62
15544;BMP180;7873;52.230;12.856;2023-05-01T03:53:07;101173.56;;;24.61
15544;BMP180;7873;52.230;12.856;2023-05-01T03:55:34;101166.97;;;24.63
15544;BMP180;7873;52.230;12.856;2023-05-01T03:58:01;101165.78;;;24.66
15544;BMP180;7873;52.230;12.856;2023-05-01T04:00:27;101166.44;;;24.68
15544;BMP180;7873;52.230;12.856;2023-05-01T04:02:54;101164.41;;;24.70
15544;BMP180;7873;52.230;12.856;2023-05-01T04:05:21;101168.13;;;24.69
15544;BMP180;7873;52.230;12.856;2023-05-01T04:07:49;101162.88;;;24.75
15544;BMP180;7873;52.230;12.856;2023-05-01T04:10:16;101157.50;;;24.75
15544;BMP180;7873;52.230;12.856;2023-05-01T04:12:43;101167.25;;;24.76
15544;BMP180;7873;52.230;12.856;2023-05-01T04:15:10;101162.88;;;24.75
15544;BMP180;7873;52.230;12.856;2023-05-01T04:17:37;101157.94;;;24.79
15544;BMP180;7873;52.230;12.856;2023-05-01T04:20:05;101158.59;;;24.81
15544;BMP180;7873;52.230;12.856;2023-05-01T04:22:32;101155.09;;;24.80
15544;BMP180;7873;52.230;12.856;2023-05-01T04:25:00;101162.16;;;24.81
15544;BMP180;7873;52.230;12.856;2023-05-01T04:27:27;101156.78;;;24.81
15544;BMP180;7873;52.230;12.856;2023-05-01T04:29:54;101152.69;;;24.85
15544;BMP180;7873;52.230;12.856;2023-05-01T04:32:20;101156.91;;;24.88
15544;BMP180;7873;52.230;12.856;2023-05-01T04:34:47;101156.03;;;24.87
15544;BMP180;7873;52.230;12.856;2023-05-01T04:37:14;101147.31;;;24.85
15544;BMP180;7873;52.230;12.856;2023-05-01T04:39:42;101150.66;;;24.87
15544;BMP180;7873;52.230;12.856;2023-05-01T04:42:10;101150.50;;;24.89
15544;BMP180;7873;52.230;12.856;2023-05-01T04:44:37;101141.25;;;24.83
15544;BMP180;7873;52.230;12.856;2023-05-01T04:47:03;101144.97;;;24.82
15544;BMP180;7873;52.230;12.856;2023-05-01T04:49:30;101146.81;;;24.82
15544;BMP180;7873;52.230;12.856;2023-05-01T04:51:57;101140.25;;;24.84
15544;BMP180;7873;52.230;12.856;2023-05-01T04:54:24;101143.09;;;24.83
15544;BMP180;7873;52.230;12.856;2023-05-01T04:56:50;101138.56;;;24.83
15544;BMP180;7873;52.230;12.856;2023-05-01T04:59:18;101133.19;;;24.83
15544;BMP180;7873;52.230;12.856;2023-05-01T05:01:45;101137.50;;;24.70
15544;BMP180;7873;52.230;12.856;2023-05-01T05:04:12;101134.50;;;24.65
15544;BMP180;7873;52.230;12.856;2023-05-01T05:06:38;101136.56;;;24.55
15544;BMP180;7873;52.230;12.856;2023-05-01T05:09:05;101134.22;;;24.52
15544;BMP180;7873;52.230;12.856;2023-05-01T05:11:31;101129.31;;;24.47
15544;BMP180;7873;52.230;12.856;2023-05-01T05:13:58;101128.00;;;24.43
15544;BMP180;7873;52.230;12.856;2023-05-01T05:16:26;101127.91;;;24.37
15544;BMP180;7873;52.230;12.856;2023-05-01T05:18:54;101131.75;;;24.34
15544;BMP180;7873;52.230;12.856;2023-05-01T05:21:20;101134.97;;;24.30
15544;BMP180;7873;52.230;12.856;2023-05-01T05:23:47;101133.00;;;24.24
15544;BMP180;7873;52.230;12.856;2023-05-01T05:26:14;101129.44;;;24.23
15544;BMP180;7873;52.230;12.856;2023-05-01T05:28:40;101130.00;;;24.19
15544;BMP180;7873;52.230;12.856;2023-05-01T05:34:31;101120.25;;;24.10
15544;BMP180;7873;52.230;12.856;2023-05-01T05:36:57;101118.44;;;24.10
15544;BMP180;7873;52.230;12.856;2023-05-01T05:39:24;101120.44;;;24.08
15544;BMP180;7873;52.230;12.856;2023-05-01T05:41:51;101110.72;;;24.07
15544;BMP180;7873;52.230;12.856;2023-05-01T05:44:18;101112.06;;;24.03
15544;BMP180;7873;52.230;12.856;2023-05-01T05:46:45;101109.84;;;24.07
15544;BMP180;7873;52.230;12.856;2023-05-01T05:49:12;101111.72;;;24.06
15544;BMP180;7873;52.230;12.856;2023-05-01T05:51:40;101111.38;;;24.09
15544;BMP180;7873;52.230;12.856;2023-05-01T05:54:06;101108.47;;;24.11
15544;BMP180;7873;52.230;12.856;2023-05-01T05:56:33;101117.56;;;24.10
15544;BMP180;7873;52.230;12.856;2023-05-01T05:58:59;101118.06;;;24.13
15544;BMP180;7873;52.230;12.856;2023-05-01T06:01:28;101110.16;;;24.12
15544;BMP180;7873;52.230;12.856;2023-05-01T06:03:55;101108.47;;;24.19
15544;BMP180;7873;52.230;12.856;2023-05-01T06:06:22;101106.84;;;24.02
15544;BMP180;7873;52.230;12.856;2023-05-01T06:08:50;101108.03;;;24.07
15544;BMP180;7873;52.230;12.856;2023-05-01T06:11:17;101100.09;;;24.06
15544;BMP180;7873;52.230;12.856;2023-05-01T06:13:45;101110.41;;;24.02
15544;BMP180;7873;52.230;12.856;2023-05-01T06:16:12;101105.69;;;23.96
15544;BMP180;7873;52.230;12.856;2023-05-01T06:18:39;101108.06;;;23.91
15544;BMP180;7873;52.230;12.856;2023-05-01T06:21:06;101107.38;;;23.97
15544;BMP180;7873;52.230;12.856;2023-05-01T06:23:32;101106.50;;;24.05
15544;BMP180;7873;52.230;12.856;2023-05-01T06:26:00;101105.13;;;24.09
15544;BMP180;7873;52.230;12.856;2023-05-01T06:28:27;101106.66;;;24.11
15544;BMP180;7873;52.230;12.856;2023-05-01T06:30:54;101107.47;;;24.12
15544;BMP180;7873;52.230;12.856;2023-05-01T06:33:20;101100.75;;;24.16
15544;BMP180;7873;52.230;12.856;2023-05-01T06:35:47;101108.81;;;24.16
15544;BMP180;7873;52.230;12.856;2023-05-01T06:38:14;101102.59;;;24.15
15544;BMP180;7873;52.230;12.856;2023-05-01T06:40:40;101101.06;;;24.13
15544;BMP180;7873;52.230;12.856;2023-05-01T06:43:09;101091.41;;;23.96
15544;BMP180;7873;52.230;12.856;2023-05-01T06:45:35;101096.81;;;23.80
15544;BMP180;7873;52.230;12.856;2023-05-01T06:48:04;101097.00;;;23.71
15544;BMP180;7873;52.230;12.856;2023-05-01T06:50:31;101097.34;;;23.68
15544;BMP180;7873;52.230;12.856;2023-05-01T06:52:57;101088.81;;;23.56
15544;BMP180;7873;52.230;12.856;2023-05-01T06:55:25;101073.53;;;23.49
15544;BMP180;7873;52.230;12.856;2023-05-01T06:57:55;101071.41;;;23.44
15544;BMP180;7873;52.230;12.856;2023-05-01T07:00:23;101071.19;;;23.46
15544;BMP180;7873;52.230;12.856;2023-05-01T07:02:50;101063.63;;;23.41
15544;BMP180;7873;52.230;12.856;2023-05-01T07:05:16;101064.38;;;23.27
15544;BMP180;7873;52.230;12.856;2023-05-01T07:07:43;101060.00;;;23.26
15544;BMP180;7873;52.230;12.856;2023-05-01T07:10:10;101055.47;;;23.19
15544;BMP180;7873;52.230;12.856;2023-05-01T07:12:37;101072.75;;;23.08
15544;BMP180;7873;52.230;12.856;2023-05-01T07:15:04;101055.44;;;23.03
15544;BMP180;7873;52.230;12.856;2023-05-01T07:17:33;101053.94;;;23.08
15544;BMP180;7873;52.230;12.856;2023-05-01T07:19:59;101051.44;;;23.15
15544;BMP180;7873;52.230;12.856;2023-05-01T07:22:26;101043.03;;;23.18
15544;BMP180;7873;52.230;12.856;2023-05-01T07:24:53;101061.53;;;23.13
15544;BMP180;7873;52.230;12.856;2023-05-01T07:27:20;101059.47;;;23.07
15544;BMP180;7873;52.230;12.856;2023-05-01T07:29:47;101055.09;;;23.06
15544;BMP180;7873;52.230;12.856;2023-05-01T07:32:14;101052.25;;;23.07
15544;BMP180;7873;52.230;12.856;2023-05-01T07:34:42;101043.88;;;22.86
15544;BMP180;7873;52.230;12.856;2023-05-01T07:37:08;101049.09;;;22.88
15544;BMP180;7873;52.230;12.856;2023-05-01T07:39:35;101049.56;;;22.91
15544;BMP180;7873;52.230;12.856;2023-05-01T07:42:02;101042.72;;;22.89
15544;BMP180;7873;52.230;12.856;2023-05-01T07:44:28;101041.84;;;22.96
15544;BMP180;7873;52.230;12.856;2023-05-01T07:47:01;101045.72;;;22.94
15544;BMP180;7873;52.230;12.856;2023-05-01T07:49:28;101032.78;;;22.89
15544;BMP180;7873;52.230;12.856;2023-05-01T07:51:56;101041.19;;;22.86
15544;BMP180;7873;52.230;12.856;2023-05-01T07:54:22;101035.31;;;22.83
15544;BMP180;7873;52.230;12.856;2023-05-01T07:56:49;101031.47;;;22.85
15544;BMP180;7873;52.230;12.856;2023-05-01T07:59:16;101033.31;;;22.77
15544;BMP180;7873;52.230;12.856;2023-05-01T08:01:42;101026.44;;;22.74
15544;BMP180;7873;52.230;12.856;2023-05-01T08:04:09;101022.22;;;22.80
15544;BMP180;7873;52.230;12.856;2023-05-01T08:06:36;101016.19;;;22.78
15544;BMP180;7873;52.230;12.856;2023-05-01T08:09:04;101017.53;;;22.74
15544;BMP180;7873;52.230;12.856;2023-05-01T08:11:30;101012.84;;;22.76
15544;BMP180;7873;52.230;12.856;2023-05-01T08:13:57;101004.25;;;22.72
15544;BMP180;7873;52.230;12.856;2023-05-01T08:16:24;101003.25;;;22.73
15544;BMP180;7873;52.230;12.856;2023-05-01T08:18:51;101008.47;;;22.75
15544;BMP180;7873;52.230;12.856;2023-05-01T08:21:18;101013.50;;;22.62
15544;BMP180;7873;52.230;12.856;2023-05-01T08:23:44;101010.50;;;22.65
15544;BMP180;7873;52.230;12.856;2023-05-01T08:26:12;101012.00;;;22.67
15544;BMP180;7873;52.230;12.856;2023-05-01T08:28:39;101004.13;;;22.50
15544;BMP180;7873;52.230;12.856;2023-05-01T08:31:06;101005.44;;;22.46
15544;BMP180;7873;52.230;12.856;2023-05-01T08:33:33;101001.09;;;22.53
15544;BMP180;7873;52.230;12.856;2023-05-01T08:35:59;101002.44;;;22.57
15544;BMP180;7873;52.230;12.856;2023-05-01T08:38:26;100995.56;;;22.62
15544;BMP180;7873;52.230;12.856;2023-05-01T08:40:53;100998.09;;;22.64
15544;BMP180;7873;52.230;12.856;2023-05-01T08:43:23;100993.72;;;22.63
15544;BMP180;7873;52.230;12.856;2023-05-01T08:45:52;100988.66;;;22.60
15544;BMP180;7873;52.230;12.856;2023-05-01T08:48:22;100987.66;;;22.61
15544;BMP180;7873;52.230;12.856;2023-05-01T08:50:50;100986.66;;;22.62
15544;BMP180;7873;52.230;12.856;2023-05-01T08:53:21;100980.63;;;22.68
15544;BMP180;7873;52.230;12.856;2023-05-01T08:55:50;100975.59;;;22.65
15544;BMP180;7873;52.230;12.856;2023-05-01T08:58:17;100974.59;;;22.66
15544;BMP180;7873;52.230;12.856;2023-05-01T09:00:46;100975.25;;;22.60
15544;BMP180;7873;52.230;12.856;2023-05-01T09:03:13;100983.13;;;22.69
15544;BMP180;7873;52.230;12.856;2023-05-01T09:05:40;100971.06;;;22.65
15544;BMP180;7873;52.230;12.856;2023-05-01T09:08:07;100970.22;;;22.57
15544;BMP180;7873;52.230;12.856;2023-05-01T09:10:40;100964.16;;;22.39
15544;BMP180;7873;52.230;12.856;2023-05-01T09:13:08;100961.16;;;22.58
15544;BMP180;7873;52.230;12.856;2023-05-01T09:15:34;100955.78;;;22.74
15544;BMP180;7873;52.230;12.856;2023-05-01T09:18:03;100959.13;;;22.84
15544;BMP180;7873;52.230;12.856;2023-05-01T09:20:30;100943.16;;;22.90
15544;BMP180;7873;52.230;12.856;2023-05-01T09:22:57;100950.03;;;22.85
15544;BMP180;7873;52.230;12.856;2023-05-01T09:25:24;100945.03;;;22.82
15544;BMP180;7873;52.230;12.856;2023-05-01T09:27:51;100940.00;;;22.79
15544;BMP180;7873;52.230;12.856;2023-05-01T09:30:31;100929.09;;;22.80
15544;BMP180;7873;52.230;12.856;2023-05-01T09:33:07;100929.91;;;22.81
15544;BMP180;7873;52.230;12.856;2023-05-01T09:35:48;100923.22;;;22.77
15544;BMP180;7873;52.230;12.856;2023-05-01T09:38:16;100929.25;;;22.79
15544;BMP180;7873;52.230;12.856;2023-05-01T09:40:44;100923.72;;;22.80
15544;BMP180;7873;52.230;12.856;2023-05-01T09:43:11;100912.31;;;22.78
15544;BMP180;7873;52.230;12.856;2023-05-01T09:45:37;100914.00;;;22.79
15544;BMP180;7873;52.230;12.856;2023-05-01T09:48:08;100909.28;;;22.81
15544;BMP180;7873;52.230;12.856;2023-05-01T09:50:36;100912.81;;;22.82
15544;BMP180;7873;52.230;12.856;2023-05-01T09:53:06;100908.09;;;22.84
15544;BMP180;7873;52.230;12.856;2023-05-01T09:55:33;100907.09;;;22.85
15544;BMP180;7873;52.230;12.856;2023-05-01T09:58:01;100899.72;;;22.79
15544;BMP180;7873;52.230;12.856;2023-05-01T10:00:27;100907.44;;;22.82
15544;BMP180;7873;52.230;12.856;2023-05-01T10:02:54;100896.34;;;22.85
15544;BMP180;7873;52.230;12.856;2023-05-01T10:05:22;100894.00;;;22.90
15544;BMP180;7873;52.230;12.856;2023-05-01T10:07:57;100901.25;;;22.81
15544;BMP180;7873;52.230;12.856;2023-05-01T10:10:24;100900.06;;;22.76
15544;BMP180;7873;52.230;12.856;2023-05-01T10:12:51;100896.19;;;22.86
15544;BMP180;7873;52.230;12.856;2023-05-01T10:15:17;100881.59;;;22.89
15544;BMP180;7873;52.230;12.856;2023-05-01T10:17:45;100889.34;;;22.76
15544;BMP180;7873;52.230;12.856;2023-05-01T10:20:15;100883.13;;;22.67
15544;BMP180;7873;52.230;12.856;2023-05-01T10:22:43;100877.78;;;22.67
15544;BMP180;7873;52.230;12.856;2023-05-01T10:25:11;100875.25;;;22.74
15544;BMP180;7873;52.230;12.856;2023-05-01T10:27:38;100868.03;;;22.74
15544;BMP180;7873;52.230;12.856;2023-05-01T10:30:06;100860.66;;;22.76
15544;BMP180;7873;52.230;12.856;2023-05-01T10:32:34;100864.00;;;22.78
15544;BMP180;7873;52.230;12.856;2023-05-01T10:35:05;100860.78;;;22.83
15544;BMP180;7873;52.230;12.856;2023-05-01T10:37:38;100862.28;;;22.85
15544;BMP180;7873;52.230;12.856;2023-05-01T10:40:45;100851.38;;;22.87
15544;BMP180;7873;52.230;12.856;2023-05-01T10:43:12;100849.72;;;22.86
15544;BMP180;7873;52.230;12.856;2023-05-01T10:45:40;100846.34;;;22.84
15544;BMP180;7873;52.230;12.856;2023-05-01T10:48:07;100847.69;;;22.88
15544;BMP180;7873;52.230;12.856;2023-05-01T10:50:33;100843.50;;;22.85
15544;BMP180;7873;52.230;12.856;2023-05-01T10:53:16;100834.06;;;22.97
15544;BMP180;7873;52.230;12.856;2023-05-01T10:55:46;100825.81;;;22.99
15544;BMP180;7873;52.230;12.856;2023-05-01T11:01:29;100818.81;;;22.90
15544;BMP180;7873;52.230;12.856;2023-05-01T11:03:56;100820.13;;;22.94
15544;BMP180;7873;52.230;12.856;2023-05-01T11:06:24;100817.16;;;22.89
15544;BMP180;7873;52.230;12.856;2023-05-01T11:08:50;100811.59;;;22.90
15544;BMP180;7873;52.230;12.856;2023-05-01T11:14:25;100802.31;;;23.01
15544;BMP180;7873;52.230;12.856;2023-05-01T11:16:52;100801.28;;;23.10
15544;BMP180;7873;52.230;12.856;2023-05-01T11:19:44;100803.44;;;23.14
15544;BMP180;7873;52.230;12.856;2023-05-01T11:22:13;100785.28;;;23.16
15544;BMP180;7873;52.230;12.856;2023-05-01T11:24:40;100778.09;;;23.09
15544;BMP180;7873;52.230;12.856;2023-05-01T11:27:12;100788.34;;;23.05
15544;BMP180;7873;52.230;12.856;2023-05-01T11:29:43;100787.84;;;23.02
15544;BMP180;7873;52.230;12.856;2023-05-01T11:32:18;100774.63;;;23.00
15544;BMP180;7873;52.230;12.856;2023-05-01T11:34:45;100774.19;;;22.81
15544;BMP180;7873;52.230;12.856;2023-05-01T11:37:13;100774.25;;;22.73
15544;BMP180;7873;52.230;12.856;2023-05-01T11:39:48;100767.56;;;22.69
15544;BMP180;7873;52.230;12.856;2023-05-01T11:42:15;100758.19;;;22.65
15544;BMP180;7873;52.230;12.856;2023-05-01T11:45:06;100770.09;;;22.62
15544;BMP180;7873;52.230;12.856;2023-05-01T11:47:35;100764.38;;;22.65
15544;BMP180;7873;52.230;12.856;2023-05-01T11:50:02;100753.94;;;22.70
15544;BMP180;7873;52.230;12.856;2023-05-01T11:52:40;100747.41;;;22.73
15544;BMP180;7873;52.230;12.856;2023-05-01T11:55:07;100754.13;;;22.69
15544;BMP180;7873;52.230;12.856;2023-05-01T11:57:44;100747.25;;;22.66
15544;BMP180;7873;52.230;12.856;2023-05-01T12:00:13;100737.16;;;22.68
15544;BMP180;7873;52.230;12.856;2023-05-01T12:02:41;100736.69;;;22.65
15544;BMP180;7873;52.230;12.856;2023-05-01T12:05:20;100736.88;;;22.63
15544;BMP180;7873;52.230;12.856;2023-05-01T12:07:48;100739.91;;;22.60
15544;BMP180;7873;52.230;12.856;2023-05-01T12:10:14;100730.34;;;22.58
15544;BMP180;7873;52.230;12.856;2023-05-01T12:12:41;100727.75;;;22.72
15544;BMP180;7873;52.230;12.856;2023-05-01T12:15:09;100720.19;;;22.76
15544;BMP180;7873;52.230;12.856;2023-05-01T12:17:37;100715.84;;;22.75
15544;BMP180;7873;52.230;12.856;2023-05-01T12:20:05;100719.91;;;22.71
15544;BMP180;7873;52.230;12.856;2023-05-01T12:22:33;100720.59;;;22.65
15544;BMP180;7873;52.230;12.856;2023-05-01T12:24:59;100718.94;;;22.64
15544;BMP180;7873;52.230;12.856;2023-05-01T12:27:26;100728.16;;;22.61
15544;BMP180;7873;52.230;12.856;2023-05-01T12:29:53;100722.13;;;22.59
15544;BMP180;7873;52.230;12.856;2023-05-01T12:32:28;100710.88;;;22.64
15544;BMP180;7873;52.230;12.856;2023-05-01T12:34:57;100716.41;;;22.62
15544;BMP180;7873;52.230;12.856;2023-05-01T12:37:29;100710.53;;;22.59
15544;BMP180;7873;52.230;12.856;2023-05-01T12:39:57;100703.84;;;22.55
15544;BMP180;7873;52.230;12.856;2023-05-01T12:42:23;100697.97;;;22.59
15544;BMP180;7873;52.230;12.856;2023-05-01T12:44:58;100697.47;;;22.56
15544;BMP180;7873;52.230;12.856;2023-05-01T12:47:26;100696.28;;;22.58
15544;BMP180;7873;52.230;12.856;2023-05-01T12:50:01;100704.00;;;22.61
15544;BMP180;7873;52.230;12.856;2023-05-01T12:52:28;100695.44;;;22.66
15544;BMP180;7873;52.230;12.856;2023-05-01T12:55:01;100692.38;;;22.69
15544;BMP180;7873;52.230;12.856;2023-05-01T12:57:27;100687.47;;;22.72
15544;BMP180;7873;52.230;12.856;2023-05-01T12:59:58;100690.66;;;22.76
15544;BMP180;7873;52.230;12.856;2023-05-01T13:02:29;100693.00;;;22.79
15544;BMP180;7873;52.230;12.856;2023-05-01T13:05:06;100686.91;;;22.85
15544;BMP180;7873;52.230;12.856;2023-05-01T13:07:34;100676.31;;;22.91
15544;BMP180;7873;52.230;12.856;2023-05-01T13:10:01;100675.94;;;22.94
15544;BMP180;7873;52.230;12.856;2023-05-01T13:12:31;100675.94;;;22.94
15544;BMP180;7873;52.230;12.856;2023-05-01T13:14:58;100665.56;;;22.91
15544;BMP180;7873;52.230;12.856;2023-05-01T13:17:26;100670.94;;;22.91
15544;BMP180;7873;52.230;12.856;2023-05-01T13:19:53;100674.09;;;22.95
15544;BMP180;7873;52.230;12.856;2023-05-01T13:22:28;100671.72;;;23.00
15544;BMP180;7873;52.230;12.856;2023-05-01T13:24:55;100660.63;;;23.03
15544;BMP180;7873;52.230;12.856;2023-05-01T13:27:22;100661.94;;;23.07
15544;BMP180;7873;52.230;12.856;2023-05-01T13:29:53;100655.03;;;23.12
15544;BMP180;7873;52.230;12.856;2023-05-01T13:32:22;100654.88;;;23.14
15544;BMP180;7873;52.230;12.856;2023-05-01T13:34:59;100647.84;;;23.13
15544;BMP180;7873;52.230;12.856;2023-05-01T13:37:57;100647.84;;;23.13
15544;BMP180;7873;52.230;12.856;2023-05-01T13:40:36;100643.13;;;23.15
15544;BMP180;7873;52.230;12.856;2023-05-01T13:43:04;100640.09;;;23.10
15544;BMP180;7873;52.230;12.856;2023-05-01T13:45:34;100635.34;;;23.20
15544;BMP180;7873;52.230;12.856;2023-05-01T13:48:04;100625.25;;;23.22
15544;BMP180;7873;52.230;12.856;2023-05-01T13:50:33;100636.38;;;23.19
15544;BMP180;7873;52.230;12.856;2023-05-01T13:53:01;100624.75;;;23.18
15544;BMP180;7873;52.230;12.856;2023-05-01T13:55:27;100620.53;;;23.24
15544;BMP180;7873;52.230;12.856;2023-05-01T13:57:54;100628.88;;;23.29
15544;BMP180;7873;52.230;12.856;2023-05-01T14:00:21;100624.59;;;23.20
15544;BMP180;7873;52.230;12.856;2023-05-01T14:02:48;100626.09;;;23.22
15544;BMP180;7873;52.230;12.856;2023-05-01T14:05:22;100612.66;;;23.22
15544;BMP180;7873;52.230;12.856;2023-05-01T14:07:53;100613.28;;;23.02
15544;BMP180;7873;52.230;12.856;2023-05-01T14:10:22;100610.31;;;23.19
15544;BMP180;7873;52.230;12.856;2023-05-01T14:12:49;100613.66;;;22.99
15544;BMP180;7873;52.230;12.856;2023-05-01T14:15:16;100605.97;;;22.96
15544;BMP180;7873;52.230;12.856;2023-05-01T14:17:43;100606.66;;;22.67